South Londonderry, Vermont
Current Conditions -  °F | °C
As of 7:11 PM on Monday 22 Dec 2014 (Local Time) from KVSF Reporting Station
Light Snow Light Snow  
Wind Chill: 32°   Ceiling: 1700
Heat Index: 32°   Visibility: 1.7mi
Dew Point: 30°   Wind: 0mph
Humidity: 92%   Direction: NA
Pressure: 30.32"   Gusts: NA
Location:  43.15°N, 72.84°W
Report Text: KVSF 230011Z AUTO 00000KT 1 3/4SM -SN BR FEW009 BKN017 OVC045 00/M01 A3032 RMK AO2 SNB06 P0001 T00001011 TSNO
Loading
Personal Weather Stations






























Interactive Weather Map New forecast layout! Learn more

10-Day Weather Forecast

Advertisements
Track Severe Weather on mobile